createdAt,value
2018-05-26T00:01:50.754Z,10.33
2018-05-26T00:04:17.000Z,8.87
2018-05-26T00:06:43.244Z,9.07
2018-05-26T00:17:50.145Z,8.33
2018-05-26T00:20:16.340Z,7.50
2018-05-26T00:22:49.696Z,10.80
2018-05-26T00:27:30.477Z,11.63
2018-05-26T00:29:56.705Z,11.50
2018-05-26T00:32:22.945Z,15.67
2018-05-26T00:34:50.678Z,16.03
2018-05-26T00:37:16.868Z,9.10
2018-05-26T00:39:43.140Z,15.73
2018-05-26T00:42:10.438Z,10.67
2018-05-26T00:44:36.607Z,14.37
2018-05-26T00:47:03.924Z,20.60
2018-05-26T00:49:31.038Z,13.63
2018-05-26T00:51:57.215Z,12.13
2018-05-26T00:54:23.407Z,15.47
2018-05-26T00:56:50.410Z,10.50
2018-05-26T00:59:17.323Z,10.00
2018-05-26T01:01:43.538Z,17.40
2018-05-26T01:04:10.811Z,9.43
2018-05-26T01:06:36.994Z,9.30
2018-05-26T01:09:04.475Z,8.40
2018-05-26T01:11:31.795Z,10.03
2018-05-26T01:13:58.352Z,7.30
2018-05-26T01:16:24.521Z,8.80
2018-05-26T01:18:51.073Z,7.90
2018-05-26T01:21:18.989Z,9.27
2018-05-26T01:23:45.155Z,8.20
2018-05-26T01:26:11.438Z,8.17
2018-05-26T01:28:37.665Z,9.40
2018-05-26T01:31:03.848Z,8.43
2018-05-26T01:33:31.956Z,9.07
2018-05-26T01:35:58.138Z,8.20
2018-05-26T01:38:24.716Z,8.53
2018-05-26T01:40:51.677Z,8.03
2018-05-26T01:43:17.860Z,11.20
2018-05-26T01:45:44.048Z,10.07
2018-05-26T01:48:10.235Z,7.47
2018-05-26T01:50:37.152Z,9.87
2018-05-26T01:53:03.370Z,7.37
2018-05-26T01:55:29.548Z,9.43
2018-05-26T01:57:56.498Z,10.67
2018-05-26T02:00:23.045Z,7.97
2018-05-26T02:02:49.216Z,10.43
2018-05-26T02:05:15.365Z,10.00
2018-05-26T02:07:41.570Z,8.80
2018-05-26T02:10:07.718Z,9.27
2018-05-26T02:12:35.103Z,8.33
2018-05-26T02:15:01.268Z,8.03
2018-05-26T02:17:27.842Z,8.77
2018-05-26T02:19:55.647Z,7.00
2018-05-26T02:22:21.834Z,8.43
2018-05-26T02:24:48.740Z,8.10
2018-05-26T02:27:14.959Z,8.10
2018-05-26T02:29:41.563Z,8.47
2018-05-26T02:32:08.483Z,11.87
2018-05-26T02:34:34.652Z,11.13
2018-05-26T02:37:01.553Z,18.47
2018-05-26T02:39:27.757Z,9.27
2018-05-26T02:41:53.913Z,10.53
2018-05-26T02:44:20.105Z,11.00
2018-05-26T02:46:46.309Z,12.30
2018-05-26T02:49:12.472Z,11.07
2018-05-26T02:51:38.647Z,8.30
2018-05-26T02:54:07.180Z,8.37
2018-05-26T02:56:33.740Z,9.37
2018-05-26T02:58:59.900Z,7.70
2018-05-26T03:01:28.216Z,9.50
2018-05-26T03:03:54.287Z,8.07
2018-05-26T03:06:27.317Z,8.50
2018-05-26T03:08:59.593Z,7.73
2018-05-26T03:11:31.957Z,7.60
2018-05-26T03:14:04.212Z,7.83
2018-05-26T03:16:32.378Z,7.57
2018-05-26T03:18:59.340Z,8.40
2018-05-26T03:21:25.508Z,9.67
2018-05-26T03:23:51.668Z,10.60
2018-05-26T03:26:18.608Z,8.63
2018-05-26T03:28:45.511Z,12.50
2018-05-26T03:31:11.748Z,12.00
2018-05-26T03:33:38.324Z,12.77
2018-05-26T03:36:04.867Z,9.53
2018-05-26T03:38:31.752Z,12.73
2018-05-26T03:40:57.965Z,9.77
2018-05-26T03:43:24.930Z,8.70
2018-05-26T03:45:51.126Z,10.00
2018-05-26T03:48:18.064Z,8.70
2018-05-26T03:50:44.984Z,10.17
2018-05-26T03:53:11.176Z,9.13
2018-05-26T03:55:49.576Z,10.57
2018-05-26T03:58:28.079Z,10.63
2018-05-26T04:00:54.290Z,9.00
2018-05-26T04:03:21.261Z,12.27
2018-05-26T04:05:47.459Z,8.90
2018-05-26T04:08:14.348Z,8.53
2018-05-26T04:10:40.558Z,8.23
2018-05-26T04:13:06.780Z,8.03
2018-05-26T04:15:33.718Z,8.60
2018-05-26T04:18:00.654Z,8.83
2018-05-26T04:20:27.585Z,9.37
2018-05-26T04:22:55.655Z,10.40
2018-05-26T04:25:21.811Z,8.77
2018-05-26T04:27:48.783Z,12.63
2018-05-26T04:30:15.359Z,8.97
2018-05-26T04:32:41.538Z,9.53
2018-05-26T04:35:07.693Z,8.80
2018-05-26T04:37:33.894Z,13.40
2018-05-26T04:40:00.424Z,18.67
2018-05-26T04:42:26.621Z,19.40
2018-05-26T04:44:53.523Z,17.83
2018-05-26T04:47:19.773Z,8.37
2018-05-26T04:49:46.681Z,9.97
2018-05-26T04:52:12.866Z,10.47
2018-05-26T04:54:39.064Z,11.90
2018-05-26T04:57:05.214Z,9.70
2018-05-26T04:59:31.469Z,10.17
2018-05-26T05:01:58.367Z,9.97
2018-05-26T05:04:24.551Z,10.40
2018-05-26T05:06:50.753Z,8.33
2018-05-26T05:09:18.462Z,8.50
2018-05-26T05:11:44.656Z,8.80
2018-05-26T05:14:13.029Z,8.70
2018-05-26T05:16:39.217Z,8.40
2018-05-26T05:19:05.552Z,9.03
2018-05-26T05:21:31.695Z,8.70
2018-05-26T05:23:57.883Z,8.27
2018-05-26T05:26:24.033Z,9.83
2018-05-26T05:28:51.119Z,9.03
2018-05-26T05:31:17.715Z,7.53
2018-05-26T05:33:43.878Z,10.07
2018-05-26T05:36:10.054Z,8.37
2018-05-26T05:38:36.269Z,7.60
2018-05-26T05:41:02.465Z,8.33
2018-05-26T05:43:28.622Z,8.03
2018-05-26T05:45:55.537Z,7.90
2018-05-26T05:48:21.755Z,7.87
2018-05-26T05:50:47.981Z,8.17
2018-05-26T05:53:14.888Z,8.27
2018-05-26T05:55:41.105Z,8.30
2018-05-26T05:58:07.286Z,7.60
2018-05-26T06:00:33.855Z,8.10
2018-05-26T06:03:00.788Z,8.10
2018-05-26T06:05:27.371Z,9.17
2018-05-26T06:07:53.556Z,7.30
2018-05-26T06:10:20.449Z,9.10
2018-05-26T06:12:46.674Z,7.10
2018-05-26T06:15:12.834Z,13.03
2018-05-26T06:17:39.043Z,8.70
2018-05-26T06:20:05.244Z,7.60
2018-05-26T06:22:31.482Z,7.80
2018-05-26T06:24:57.790Z,8.30
2018-05-26T06:27:24.866Z,8.93
2018-05-26T06:29:51.061Z,9.83
2018-05-26T06:32:18.043Z,10.37
2018-05-26T06:34:44.215Z,7.63
2018-05-26T06:37:11.123Z,10.00
2018-05-26T06:39:37.295Z,9.23
2018-05-26T06:42:04.200Z,9.63
2018-05-26T06:44:30.394Z,7.67
2018-05-26T06:46:56.576Z,9.97
2018-05-26T06:49:23.148Z,9.13
2018-05-26T06:51:50.054Z,9.50
2018-05-26T06:54:16.259Z,8.33
2018-05-26T06:56:42.442Z,7.37
2018-05-26T06:59:09.370Z,7.43
2018-05-26T07:01:35.577Z,11.80
2018-05-26T07:04:02.205Z,8.23
2018-05-26T07:06:28.383Z,9.07
2018-05-26T07:08:55.329Z,8.13
2018-05-26T07:11:22.279Z,8.50
2018-05-26T07:13:49.223Z,9.17
2018-05-26T07:16:16.176Z,8.87
2018-05-26T07:18:43.216Z,8.30
2018-05-26T07:21:10.145Z,8.50
2018-05-26T07:23:36.410Z,10.57
2018-05-26T07:26:02.632Z,9.87
2018-05-26T07:28:28.846Z,8.87
2018-05-26T07:30:55.798Z,10.63
2018-05-26T07:33:22.352Z,10.30
2018-05-26T07:35:48.544Z,8.90
2018-05-26T07:38:14.711Z,7.90
2018-05-26T07:40:40.920Z,9.10
2018-05-26T07:43:07.496Z,11.53
2018-05-26T07:45:34.097Z,10.40
2018-05-26T07:48:00.327Z,9.83
2018-05-26T07:50:26.558Z,10.90
2018-05-26T07:52:52.696Z,9.20
2018-05-26T07:55:18.890Z,8.30
2018-05-26T07:57:45.815Z,11.03
2018-05-26T08:00:12.069Z,8.63
2018-05-26T08:02:38.244Z,9.40
2018-05-26T08:05:04.434Z,11.83
2018-05-26T08:07:31.410Z,9.57
2018-05-26T08:09:58.829Z,9.30
2018-05-26T08:12:25.056Z,8.93
2018-05-26T08:14:52.025Z,7.80
2018-05-26T08:17:18.363Z,13.43
2018-05-26T08:19:44.412Z,9.17
2018-05-26T08:22:11.353Z,8.63
2018-05-26T08:24:37.582Z,9.93
2018-05-26T08:27:03.800Z,9.13
2018-05-26T08:29:30.163Z,9.80
2018-05-26T08:31:56.411Z,10.23
2018-05-26T08:34:22.589Z,11.03
2018-05-26T08:36:48.800Z,11.53
2018-05-26T08:39:16.115Z,12.70
2018-05-26T08:41:42.405Z,8.10
2018-05-26T08:44:08.591Z,11.13
2018-05-26T08:46:36.002Z,9.03
2018-05-26T08:49:02.250Z,21.87
2018-05-26T08:51:28.431Z,10.10
2018-05-26T08:53:54.968Z,8.90
2018-05-26T08:56:21.195Z,11.17
2018-05-26T08:58:48.153Z,9.57
2018-05-26T09:01:14.343Z,9.33
2018-05-26T09:03:40.533Z,8.90
2018-05-26T09:06:07.197Z,7.80
2018-05-26T09:08:33.631Z,7.63
2018-05-26T09:11:00.917Z,8.37
2018-05-26T09:13:27.911Z,9.47
2018-05-26T09:15:54.434Z,8.53
2018-05-26T09:18:20.624Z,10.73
2018-05-26T09:20:47.646Z,10.60
2018-05-26T09:23:14.224Z,10.60
2018-05-26T09:25:40.422Z,9.10
2018-05-26T09:28:06.986Z,10.57
2018-05-26T09:30:33.929Z,7.53
2018-05-26T09:33:00.165Z,8.30
2018-05-26T09:35:26.412Z,8.73
2018-05-26T09:37:52.584Z,7.77
2018-05-26T09:40:18.797Z,9.63
2018-05-26T09:42:45.402Z,7.10
2018-05-26T09:45:11.605Z,7.20
2018-05-26T09:47:45.224Z,6.67
2018-05-26T09:50:11.392Z,7.83
2018-05-26T09:52:37.626Z,9.33
2018-05-26T09:55:04.533Z,8.37
2018-05-26T09:57:30.738Z,7.83
2018-05-26T09:59:58.563Z,7.30
2018-05-26T10:02:25.498Z,8.77
2018-05-26T10:04:52.121Z,13.30
2018-05-26T10:07:18.714Z,12.70
2018-05-26T10:09:45.280Z,11.53
2018-05-26T10:12:11.841Z,8.63
2018-05-26T10:14:38.054Z,6.17
2018-05-26T10:17:04.227Z,6.93
2018-05-26T10:19:32.124Z,6.63
2018-05-26T10:21:59.071Z,6.60
2018-05-26T10:24:26.015Z,7.10
2018-05-26T10:26:53.331Z,6.63
2018-05-26T10:29:19.573Z,7.90
2018-05-26T10:31:45.733Z,10.80
2018-05-26T10:34:11.914Z,7.50
2018-05-26T10:36:39.784Z,6.93
2018-05-26T10:39:05.943Z,6.70
2018-05-26T10:41:33.164Z,6.57
2018-05-26T10:43:59.344Z,7.53
2018-05-26T10:46:25.640Z,6.30
2018-05-26T10:48:52.675Z,7.00
2018-05-26T10:51:18.924Z,7.90
2018-05-26T10:53:45.850Z,7.83
2018-05-26T10:56:12.438Z,7.30
2018-05-26T10:58:38.627Z,7.43
2018-05-26T11:01:05.944Z,6.90
2018-05-26T11:03:32.413Z,6.60
2018-05-26T11:05:58.755Z,12.07
2018-05-26T11:08:25.946Z,7.30
2018-05-26T11:10:52.362Z,6.73
2018-05-26T11:13:18.786Z,7.47
2018-05-26T11:15:45.745Z,7.07
2018-05-26T11:18:11.965Z,6.47
2018-05-26T11:20:41.612Z,6.10
2018-05-26T11:23:07.794Z,9.00
2018-05-26T11:25:34.868Z,7.43
2018-05-26T11:28:01.682Z,8.07
2018-05-26T11:30:28.627Z,7.50
2018-05-26T11:32:54.765Z,6.63
2018-05-26T11:35:21.758Z,6.20
2018-05-26T11:37:47.947Z,7.40
2018-05-26T11:40:14.112Z,6.53
2018-05-26T11:42:40.333Z,6.00
2018-05-26T11:45:06.492Z,6.50
2018-05-26T11:47:32.958Z,7.70
2018-05-26T11:49:59.869Z,6.33
2018-05-26T11:52:26.583Z,6.33
2018-05-26T11:54:52.753Z,6.47
2018-05-26T11:57:19.200Z,10.50
2018-05-26T11:59:46.177Z,6.10
2018-05-26T12:02:12.395Z,6.70
2018-05-26T12:04:38.628Z,6.90
2018-05-26T12:07:04.808Z,7.20
2018-05-26T12:09:31.115Z,6.57
2018-05-26T12:11:57.296Z,7.40
2018-05-26T12:14:24.230Z,7.17
2018-05-26T12:16:51.156Z,6.80
2018-05-26T12:19:19.051Z,13.03
2018-05-26T12:21:46.973Z,8.20
2018-05-26T12:24:13.284Z,6.50
2018-05-26T12:26:39.460Z,6.30
2018-05-26T12:29:05.678Z,10.93
2018-05-26T12:31:31.848Z,5.47
2018-05-26T12:33:58.102Z,5.27
2018-05-26T12:36:24.261Z,6.80
2018-05-26T12:38:50.479Z,6.60
2018-05-26T12:41:16.624Z,5.83
2018-05-26T12:43:42.831Z,5.97
2018-05-26T12:46:09.121Z,5.97
2018-05-26T12:48:35.284Z,7.60
2018-05-26T12:51:05.392Z,7.73
2018-05-26T12:53:32.314Z,11.40
2018-05-26T12:56:02.045Z,10.53
2018-05-26T12:58:28.308Z,7.87
2018-05-26T13:00:56.698Z,6.87
2018-05-26T13:03:23.715Z,6.40
2018-05-26T13:05:49.939Z,7.03
2018-05-26T13:08:16.140Z,6.83
2018-05-26T13:10:42.405Z,6.30
2018-05-26T13:13:09.065Z,7.63
2018-05-26T13:15:35.250Z,7.77
2018-05-26T13:18:01.482Z,6.93
2018-05-26T13:20:27.722Z,5.77
2018-05-26T13:22:53.938Z,6.20
2018-05-26T13:25:20.193Z,7.43
2018-05-26T13:27:47.415Z,6.70
2018-05-26T13:30:13.640Z,6.20
2018-05-26T13:32:39.860Z,7.03
2018-05-26T13:35:06.048Z,6.83
2018-05-26T13:37:33.103Z,7.17
2018-05-26T13:39:59.278Z,5.90
2018-05-26T13:42:25.509Z,7.03
2018-05-26T13:44:51.785Z,6.27
2018-05-26T13:47:18.762Z,5.97
2018-05-26T13:49:46.590Z,13.67
2018-05-26T13:52:13.178Z,6.80
2018-05-26T13:54:39.369Z,6.17
2018-05-26T13:57:05.514Z,5.77
2018-05-26T13:59:32.467Z,6.03
2018-05-26T14:02:00.703Z,5.90
2018-05-26T14:04:26.882Z,8.83
2018-05-26T14:06:53.078Z,7.10
2018-05-26T14:09:19.251Z,9.67
2018-05-26T14:11:45.460Z,6.30
2018-05-26T14:14:12.449Z,7.30
2018-05-26T14:16:38.974Z,8.67
2018-05-26T14:19:05.175Z,7.03
2018-05-26T14:21:31.404Z,16.37
2018-05-26T14:23:57.610Z,6.07
2018-05-26T14:26:24.552Z,6.63
2018-05-26T14:28:50.765Z,6.70
2018-05-26T14:31:16.941Z,7.20
2018-05-26T14:33:43.190Z,5.80
2018-05-26T14:36:09.430Z,6.53
2018-05-26T14:38:37.073Z,6.40
2018-05-26T14:41:03.325Z,6.10
2018-05-26T14:43:29.520Z,5.67
2018-05-26T14:45:55.757Z,6.57
2018-05-26T14:48:21.929Z,6.80
2018-05-26T14:50:48.541Z,6.33
2018-05-26T14:53:14.743Z,6.60
2018-05-26T14:55:40.984Z,6.50
2018-05-26T14:58:07.184Z,5.97
2018-05-26T15:00:34.085Z,6.70
2018-05-26T15:03:00.251Z,6.53
2018-05-26T15:05:27.237Z,6.53
2018-05-26T15:07:53.414Z,6.67
2018-05-26T15:10:20.390Z,7.53
2018-05-26T15:12:46.652Z,6.27
2018-05-26T15:15:13.539Z,6.30
2018-05-26T15:17:40.484Z,5.50
2018-05-26T15:20:07.396Z,6.50
2018-05-26T15:22:33.598Z,5.90
2018-05-26T15:24:59.812Z,7.77
2018-05-26T15:27:26.081Z,6.30
2018-05-26T15:29:52.294Z,6.47
2018-05-26T15:32:18.451Z,7.40
2018-05-26T15:34:44.662Z,6.40
2018-05-26T15:37:11.270Z,7.13
2018-05-26T15:39:37.475Z,6.43
2018-05-26T15:42:04.450Z,6.17
2018-05-26T15:44:30.653Z,5.83
2018-05-26T15:46:57.642Z,6.57
2018-05-26T15:49:23.855Z,7.37
2018-05-26T15:51:50.064Z,6.53
2018-05-26T15:54:16.973Z,6.47
2018-05-26T15:56:43.181Z,6.83
2018-05-26T15:59:09.356Z,6.10
2018-05-26T16:01:36.303Z,6.73
2018-05-26T16:04:03.228Z,10.10
2018-05-26T16:06:31.126Z,9.03
2018-05-26T16:08:58.064Z,7.20
2018-05-26T16:11:24.961Z,6.20
2018-05-26T16:13:51.156Z,5.93
2018-05-26T16:16:19.046Z,8.13
2018-05-26T16:18:45.281Z,7.60
2018-05-26T16:21:11.407Z,9.57
2018-05-26T16:23:37.611Z,8.10
2018-05-26T16:26:03.813Z,7.03
2018-05-26T16:28:30.910Z,7.50
2018-05-26T16:30:57.085Z,11.10
2018-05-26T16:33:24.053Z,10.80
2018-05-26T16:35:50.249Z,8.20
2018-05-26T16:38:16.464Z,11.70
2018-05-26T16:40:42.699Z,10.63
2018-05-26T16:43:08.901Z,5.80
2018-05-26T16:45:35.089Z,5.87
2018-05-26T16:48:02.052Z,7.50
2018-05-26T16:50:28.297Z,5.43
2018-05-26T16:52:54.496Z,5.83
2018-05-26T16:55:21.472Z,9.03
2018-05-26T16:57:47.672Z,6.10
2018-05-26T17:00:13.895Z,6.30
2018-05-26T17:02:40.777Z,5.07
2018-05-26T17:05:07.461Z,7.03
2018-05-26T17:07:33.631Z,6.43
2018-05-26T17:09:59.808Z,7.00
2018-05-26T17:12:26.001Z,5.87
2018-05-26T17:14:52.212Z,6.30
2018-05-26T17:17:18.450Z,6.80
2018-05-26T17:19:44.619Z,6.03
2018-05-26T17:22:10.807Z,5.53
2018-05-26T17:24:37.043Z,5.93
2018-05-26T17:27:03.295Z,6.70
2018-05-26T17:29:29.495Z,6.30
2018-05-26T17:31:57.435Z,6.77
2018-05-26T17:34:24.462Z,5.97
2018-05-26T17:36:51.427Z,6.83
2018-05-26T17:39:18.352Z,5.97
2018-05-26T17:41:44.596Z,6.50
2018-05-26T17:44:11.517Z,6.43
2018-05-26T17:46:37.770Z,7.53
2018-05-26T17:49:04.731Z,7.80
2018-05-26T17:51:30.980Z,6.63
2018-05-26T17:53:57.228Z,6.80
2018-05-26T17:56:26.017Z,9.40
2018-05-26T17:58:52.214Z,8.23
2018-05-26T18:01:18.426Z,7.40
2018-05-26T18:03:45.409Z,9.77
2018-05-26T18:06:12.411Z,6.80
2018-05-26T18:08:39.719Z,6.53
2018-05-26T18:11:05.929Z,6.70
2018-05-26T18:13:32.149Z,6.70
2018-05-26T18:15:58.356Z,9.10
2018-05-26T18:18:25.359Z,6.90
2018-05-26T18:20:51.605Z,6.77
2018-05-26T18:23:17.805Z,6.80
2018-05-26T18:25:44.014Z,7.23
2018-05-26T18:28:10.202Z,6.87
2018-05-26T18:30:36.429Z,6.77
2018-05-26T18:33:02.656Z,6.57
2018-05-26T18:35:28.833Z,7.23
2018-05-26T18:37:55.071Z,6.60
2018-05-26T18:40:21.303Z,6.50
2018-05-26T18:42:47.532Z,6.83
2018-05-26T18:45:13.728Z,9.83
2018-05-26T18:47:40.738Z,6.50
2018-05-26T18:50:07.013Z,7.13
2018-05-26T18:52:33.251Z,8.97
2018-05-26T18:54:59.444Z,10.23
2018-05-26T18:57:26.414Z,14.97
2018-05-26T18:59:52.985Z,20.37
2018-05-26T19:02:19.564Z,23.03
2018-05-26T19:04:46.518Z,23.03
2018-05-26T19:07:13.529Z,15.40
2018-05-26T19:09:39.786Z,13.33
2018-05-26T19:12:05.969Z,12.50
2018-05-26T19:14:32.210Z,11.80
2018-05-26T19:16:58.790Z,13.10
2018-05-26T19:19:25.868Z,16.63
2018-05-26T19:21:52.821Z,9.97
2018-05-26T19:24:19.037Z,12.07
2018-05-26T19:26:45.237Z,11.53
2018-05-26T19:29:12.206Z,15.40
2018-05-26T19:31:39.655Z,73.73
2018-05-26T19:34:06.632Z,24.53
2018-05-26T19:36:33.955Z,96.47
2018-05-26T19:39:00.936Z,106.40
2018-05-26T19:41:27.109Z,148.53
2018-05-26T19:43:53.363Z,55.73
2018-05-26T19:46:20.323Z,96.93
2018-05-26T19:48:46.542Z,67.33
2018-05-26T19:51:12.735Z,26.67
2018-05-26T19:53:38.952Z,24.83
2018-05-26T19:56:05.188Z,30.83
2018-05-26T19:58:31.409Z,38.30
2018-05-26T20:00:57.627Z,29.20
2018-05-26T20:03:23.827Z,33.00
2018-05-26T20:05:50.942Z,49.37
2018-05-26T20:08:17.929Z,39.40
2018-05-26T20:10:44.556Z,16.47
2018-05-26T20:13:10.779Z,16.50
2018-05-26T20:15:37.017Z,10.27
2018-05-26T20:18:04.693Z,12.53
2018-05-26T20:20:31.707Z,14.13
2018-05-26T20:22:58.644Z,12.50
2018-05-26T20:25:25.615Z,17.90
2018-05-26T20:27:51.880Z,12.03
2018-05-26T20:30:18.127Z,11.37
2018-05-26T20:32:44.403Z,15.10
2018-05-26T20:35:10.657Z,15.23
2018-05-26T20:37:36.916Z,13.13
2018-05-26T20:40:03.161Z,12.40
2018-05-26T20:42:29.419Z,13.67
2018-05-26T20:45:00.784Z,14.40
2018-05-26T20:47:27.046Z,14.30
2018-05-26T20:49:53.335Z,11.50
2018-05-26T20:52:19.621Z,10.57
2018-05-26T20:54:45.882Z,13.00
2018-05-26T20:57:12.868Z,17.00
2018-05-26T20:59:39.173Z,12.77
2018-05-26T21:02:05.416Z,14.80
2018-05-26T21:04:31.997Z,15.00
2018-05-26T21:06:58.285Z,19.30
2018-05-26T21:09:26.513Z,17.77
2018-05-26T21:11:53.507Z,12.60
2018-05-26T21:14:21.782Z,24.90
2018-05-26T21:16:48.726Z,33.63
2018-05-26T21:19:14.965Z,22.77
2018-05-26T21:21:41.261Z,30.67
2018-05-26T21:24:08.264Z,21.63
2018-05-26T21:26:34.493Z,13.67
2018-05-26T21:29:00.760Z,16.90
2018-05-26T21:31:27.725Z,18.40
2018-05-26T21:33:54.004Z,20.30
2018-05-26T21:36:20.282Z,16.93
2018-05-26T21:38:46.493Z,12.33
2018-05-26T21:41:28.741Z,10.67
2018-05-26T21:43:54.931Z,11.23
2018-05-26T21:46:21.853Z,14.67
2018-05-26T21:48:48.484Z,10.60
2018-05-26T21:51:14.695Z,9.73
2018-05-26T21:53:40.974Z,9.47
2018-05-26T21:56:07.944Z,9.20
2018-05-26T21:58:34.986Z,8.57
2018-05-26T22:01:01.217Z,9.50
2018-05-26T22:03:27.997Z,9.37
2018-05-26T22:05:55.068Z,7.97
2018-05-26T22:08:21.281Z,9.37
2018-05-26T22:10:49.110Z,8.30
2018-05-26T22:13:15.355Z,10.07
2018-05-26T22:15:41.665Z,10.03
2018-05-26T22:18:08.175Z,8.83
2018-05-26T22:20:35.157Z,7.90
2018-05-26T22:23:01.397Z,9.30
2018-05-26T22:25:27.639Z,9.50
2018-05-26T22:27:54.221Z,8.40
2018-05-26T22:30:21.166Z,7.60
2018-05-26T22:32:47.416Z,7.97
2018-05-26T22:35:13.606Z,9.20
2018-05-26T22:37:39.812Z,12.13
2018-05-26T22:40:06.027Z,8.27
2018-05-26T22:42:32.237Z,8.07
2018-05-26T22:44:58.471Z,6.60
2018-05-26T22:47:24.674Z,7.87
2018-05-26T22:49:51.617Z,7.67
2018-05-26T22:52:18.575Z,8.93
2018-05-26T22:54:44.809Z,8.40
2018-05-26T22:57:10.968Z,7.50
2018-05-26T22:59:37.155Z,9.17
2018-05-26T23:02:03.417Z,7.60
2018-05-26T23:04:29.683Z,8.03
2018-05-26T23:06:55.891Z,7.93
2018-05-26T23:09:22.073Z,8.17
2018-05-26T23:11:48.297Z,8.57
2018-05-26T23:14:14.469Z,8.37
2018-05-26T23:16:40.660Z,7.33
2018-05-26T23:19:06.857Z,7.70
2018-05-26T23:21:33.100Z,8.50
2018-05-26T23:24:00.051Z,8.97
2018-05-26T23:26:27.015Z,7.60
2018-05-26T23:28:53.248Z,7.47
2018-05-26T23:31:19.434Z,7.97
2018-05-26T23:33:49.920Z,7.47
2018-05-26T23:36:16.107Z,7.30
2018-05-26T23:38:43.094Z,7.20
2018-05-26T23:41:09.314Z,7.13
2018-05-26T23:43:35.501Z,8.30
2018-05-26T23:46:02.494Z,9.23
2018-05-26T23:48:28.828Z,7.97
2018-05-26T23:50:54.989Z,7.33
2018-05-26T23:53:21.156Z,8.10
2018-05-26T23:55:47.396Z,7.13
2018-05-26T23:58:13.584Z,9.73
